Time;durP1;ratioP1;P1;durP2;ratioP2;P2;SDS_P1;SDS_P2;PMS_P1;PMS_P2;Temp;Humidity;BMP_temperature;BMP_pressure;BME280_temperature;BME280_humidity;BME280_pressure;Samples;Min_cycle;Max_cycle;Signal;HPM_P1;HPM_P2
2022/09/12 00:01:18;;;;;;;;;;;20.90;98.20;;;;;;5096751;28;20003;-10
2022/09/12 00:03:43;;;;;;;;;;;20.90;98.20;;;;;;5078797;28;19939;-10
2022/09/12 00:06:09;;;;;;;;;;;20.80;98.10;;;;;;5096757;28;20001;-10
2022/09/12 00:08:35;;;;;;;;;;;20.90;98.20;;;;;;5080140;28;19962;-10
2022/09/12 00:11:03;;;;;;;;;;;20.90;98.20;;;;;;5096199;28;19908;-10
2022/09/12 00:13:29;;;;;;;;;;;20.80;98.10;;;;;;5078399;28;19948;-11
2022/09/12 00:16:00;;;;;;;;;;;20.80;98.10;;;;;;5096250;28;19998;-10
2022/09/12 00:18:26;;;;;;;;;;;20.80;98.20;;;;;;5079264;28;20409;-10
2022/09/12 00:20:51;;;;;;;;;;;20.80;98.20;;;;;;5082062;28;19908;-10
2022/09/12 00:23:17;;;;;;;;;;;20.80;98.20;;;;;;5083029;28;20174;-10
2022/09/12 00:25:44;;;;;;;;;;;20.80;98.10;;;;;;5100642;28;20293;-10
2022/09/12 00:28:10;;;;;;;;;;;20.70;98.10;;;;;;5101503;28;19955;-10
2022/09/12 00:30:39;;;;;;;;;;;20.70;98.10;;;;;;5101609;28;19916;-10
2022/09/12 00:33:04;;;;;;;;;;;20.80;98.10;;;;;;5101190;28;19947;-9
2022/09/12 00:35:41;;;;;;;;;;;20.80;98.10;;;;;;5083492;28;19955;-10
2022/09/12 00:38:06;;;;;;;;;;;20.70;98.10;;;;;;5100852;28;19940;-10
2022/09/12 00:40:32;;;;;;;;;;;20.70;98.10;;;;;;5101002;28;19954;-10
2022/09/12 00:42:57;;;;;;;;;;;20.70;98.10;;;;;;5083306;28;20263;-10
2022/09/12 00:45:26;;;;;;;;;;;20.70;98.10;;;;;;5101376;28;20448;-10
2022/09/12 00:47:53;;;;;;;;;;;20.70;98.10;;;;;;5101426;28;19926;-10
2022/09/12 00:50:18;;;;;;;;;;;20.70;98.00;;;;;;5101209;28;19948;-10
2022/09/12 00:52:44;;;;;;;;;;;20.70;98.00;;;;;;5100774;28;19955;-10
2022/09/12 00:55:11;;;;;;;;;;;20.70;98.00;;;;;;5083519;28;19908;-10
2022/09/12 00:57:40;;;;;;;;;;;20.70;98.00;;;;;;5101200;28;19912;-10
2022/09/12 01:00:13;;;;;;;;;;;20.70;98.00;;;;;;5082576;28;20201;-10
2022/09/12 01:02:39;;;;;;;;;;;20.60;98.00;;;;;;5083048;28;20048;-10
2022/09/12 01:05:05;;;;;;;;;;;20.60;98.00;;;;;;5100446;28;20012;-10
2022/09/12 01:07:30;;;;;;;;;;;20.60;98.00;;;;;;5083325;28;19908;-9
2022/09/12 01:09:56;;;;;;;;;;;20.60;98.00;;;;;;5100126;28;19908;-10
2022/09/12 01:12:22;;;;;;;;;;;20.60;97.90;;;;;;5082732;28;19908;-9
2022/09/12 01:14:48;;;;;;;;;;;20.60;97.90;;;;;;5099572;28;20321;-10
2022/09/12 01:17:14;;;;;;;;;;;20.60;98.00;;;;;;5100412;28;19919;-10
2022/09/12 01:19:39;;;;;;;;;;;20.60;97.90;;;;;;5100361;28;19908;-10
2022/09/12 01:22:16;;;;;;;;;;;20.60;97.90;;;;;;5100577;28;19955;-10
2022/09/12 01:25:00;;;;;;;;;;;20.60;97.90;;;;;;5100813;28;19991;-10
2022/09/12 01:27:32;;;;;;;;;;;20.60;97.90;;;;;;5083395;28;19919;-8
2022/09/12 01:30:03;;;;;;;;;;;20.60;97.90;;;;;;5100335;28;19997;-13
2022/09/12 01:32:38;;;;;;;;;;;20.50;97.90;;;;;;5100407;28;19912;-10
2022/09/12 01:35:16;;;;;;;;;;;20.50;97.90;;;;;;5083355;28;19919;-10
2022/09/12 01:37:49;;;;;;;;;;;20.50;97.90;;;;;;5083147;28;19908;-10
2022/09/12 01:40:22;;;;;;;;;;;20.50;97.90;;;;;;5100363;28;19908;-10
2022/09/12 01:42:57;;;;;;;;;;;20.50;97.90;;;;;;5083264;28;20313;-10
2022/09/12 01:45:26;;;;;;;;;;;20.50;97.90;;;;;;5082761;28;19908;-10
2022/09/12 01:47:59;;;;;;;;;;;20.50;97.90;;;;;;5083116;28;20246;-10
2022/09/12 01:50:27;;;;;;;;;;;20.50;97.90;;;;;;5100071;28;19919;-11
2022/09/12 01:52:54;;;;;;;;;;;20.50;97.80;;;;;;5083061;28;19908;-9
2022/09/12 01:55:28;;;;;;;;;;;20.50;97.80;;;;;;5082402;28;20279;-10
2022/09/12 01:57:58;;;;;;;;;;;20.50;97.80;;;;;;5100444;28;19919;-9
2022/09/12 02:00:24;;;;;;;;;;;20.40;97.80;;;;;;5082850;28;20006;-10
2022/09/12 02:03:01;;;;;;;;;;;20.40;97.80;;;;;;5100091;28;19926;-9
2022/09/12 02:05:41;;;;;;;;;;;20.40;97.80;;;;;;5099941;28;19919;-9
2022/09/12 02:08:09;;;;;;;;;;;20.40;97.80;;;;;;5100243;28;19908;-10
2022/09/12 02:10:42;;;;;;;;;;;20.40;97.80;;;;;;5099553;28;19908;-10
2022/09/12 02:13:23;;;;;;;;;;;20.40;97.80;;;;;;5082814;28;19935;-10
2022/09/12 02:15:52;;;;;;;;;;;20.40;97.70;;;;;;5099546;28;19911;-10
2022/09/12 02:18:19;;;;;;;;;;;20.40;97.70;;;;;;5082280;28;20176;-10
2022/09/12 02:20:46;;;;;;;;;;;20.40;97.70;;;;;;5081532;28;20328;-10
2022/09/12 02:23:14;;;;;;;;;;;20.40;97.70;;;;;;5082071;28;19963;-10
2022/09/12 02:25:43;;;;;;;;;;;20.40;97.70;;;;;;5082037;28;19908;-11
2022/09/12 02:28:11;;;;;;;;;;;20.40;97.70;;;;;;5082286;28;19954;-10
2022/09/12 02:30:41;;;;;;;;;;;20.30;97.70;;;;;;5082064;28;19939;-9
2022/09/12 02:33:30;;;;;;;;;;;20.30;97.70;;;;;;5099664;28;19914;-10
2022/09/12 02:36:14;;;;;;;;;;;20.30;97.70;;;;;;5068948;28;20261;-10
2022/09/12 02:38:44;;;;;;;;;;;20.30;97.70;;;;;;5099374;28;19939;-10
2022/09/12 02:41:11;;;;;;;;;;;20.30;97.70;;;;;;5082043;28;20277;-10
2022/09/12 02:43:37;;;;;;;;;;;20.30;97.60;;;;;;5081131;28;19955;-10
2022/09/12 02:46:06;;;;;;;;;;;20.30;97.60;;;;;;5099826;28;19908;-10
2022/09/12 02:48:34;;;;;;;;;;;20.30;97.60;;;;;;5081639;28;19938;-10
2022/09/12 02:51:01;;;;;;;;;;;20.20;97.60;;;;;;5081931;28;19998;-10
2022/09/12 02:53:27;;;;;;;;;;;20.20;97.60;;;;;;5081305;28;19912;-10
2022/09/12 02:55:52;;;;;;;;;;;20.20;97.60;;;;;;5081413;28;19930;-10
2022/09/12 02:58:25;;;;;;;;;;;20.20;97.60;;;;;;5099090;28;20205;-10
2022/09/12 03:00:57;;;;;;;;;;;20.20;97.60;;;;;;5098513;28;19919;-10
2022/09/12 03:03:41;;;;;;;;;;;20.20;97.50;;;;;;5080938;28;19936;-10
2022/09/12 03:06:15;;;;;;;;;;;20.20;97.50;;;;;;5098529;28;19908;-10
2022/09/12 03:08:49;;;;;;;;;;;20.20;97.50;;;;;;5081078;28;19919;-10
2022/09/12 03:11:24;;;;;;;;;;;20.20;97.50;;;;;;5080694;28;19919;-10
2022/09/12 03:13:52;;;;;;;;;;;20.20;97.50;;;;;;5081070;28;19958;-10
2022/09/12 03:16:18;;;;;;;;;;;20.20;97.50;;;;;;5098641;28;19965;-9
2022/09/12 03:19:02;;;;;;;;;;;20.20;97.50;;;;;;5081599;28;20282;-10
2022/09/12 03:21:37;;;;;;;;;;;20.20;97.50;;;;;;5080257;28;19931;-10
2022/09/12 03:24:12;;;;;;;;;;;20.20;97.50;;;;;;5098115;28;19998;-9
2022/09/12 03:26:51;;;;;;;;;;;20.10;97.40;;;;;;5080810;28;19908;-9
2022/09/12 03:29:19;;;;;;;;;;;20.10;97.40;;;;;;5097977;28;20383;-10
2022/09/12 03:31:52;;;;;;;;;;;20.10;97.40;;;;;;5079861;28;19916;-10
2022/09/12 03:34:18;;;;;;;;;;;20.10;97.40;;;;;;5080258;28;19908;-10
2022/09/12 03:36:50;;;;;;;;;;;20.10;97.40;;;;;;5080602;28;19908;-10
2022/09/12 03:39:15;;;;;;;;;;;20.10;97.40;;;;;;5097540;28;20320;-10
2022/09/12 03:41:41;;;;;;;;;;;20.10;97.40;;;;;;5080187;28;19920;-12
2022/09/12 03:44:06;;;;;;;;;;;20.10;97.40;;;;;;5097935;28;20175;-11
2022/09/12 03:46:35;;;;;;;;;;;20.00;97.30;;;;;;5097618;28;20315;-10
2022/09/12 03:49:00;;;;;;;;;;;20.10;97.30;;;;;;5079912;28;20293;-10
2022/09/12 03:51:26;;;;;;;;;;;20.00;97.30;;;;;;5097812;28;19908;-9
2022/09/12 03:53:52;;;;;;;;;;;20.10;97.30;;;;;;5081659;28;19930;-10
2022/09/12 03:56:18;;;;;;;;;;;20.00;97.30;;;;;;5104219;28;19918;-10
2022/09/12 03:58:44;;;;;;;;;;;20.00;97.30;;;;;;5085788;28;19918;-10
2022/09/12 04:01:14;;;;;;;;;;;20.00;97.30;;;;;;5087042;28;20011;-9
2022/09/12 04:03:43;;;;;;;;;;;20.00;97.50;;;;;;5104011;28;19915;-9
2022/09/12 04:06:10;;;;;;;;;;;20.00;97.20;;;;;;5103758;28;19950;-10
2022/09/12 04:08:36;;;;;;;;;;;20.00;97.20;;;;;;5104183;28;19908;-10
2022/09/12 04:11:03;;;;;;;;;;;20.00;97.20;;;;;;5086805;28;20002;-9
2022/09/12 04:13:29;;;;;;;;;;;20.00;97.20;;;;;;5104379;28;20011;-9
2022/09/12 04:15:57;;;;;;;;;;;20.00;97.20;;;;;;5086835;28;20006;-8
2022/09/12 04:18:22;;;;;;;;;;;20.00;97.20;;;;;;5086444;28;19999;-10
2022/09/12 04:20:48;;;;;;;;;;;20.00;97.20;;;;;;5102512;28;20007;-10
2022/09/12 04:23:13;;;;;;;;;;;19.90;97.20;;;;;;5102747;28;19921;-9
2022/09/12 04:25:41;;;;;;;;;;;19.90;97.20;;;;;;5103092;28;19919;-11
2022/09/12 04:28:07;;;;;;;;;;;19.90;97.10;;;;;;5103164;28;19908;-10
2022/09/12 04:30:33;;;;;;;;;;;19.90;97.10;;;;;;5104160;28;19926;-10
2022/09/12 04:32:58;;;;;;;;;;;19.90;97.10;;;;;;5103505;28;19999;-9
2022/09/12 04:35:24;;;;;;;;;;;19.90;97.10;;;;;;5104085;28;19999;-9
2022/09/12 04:37:50;;;;;;;;;;;19.90;97.10;;;;;;5102768;28;20332;-10
2022/09/12 04:40:16;;;;;;;;;;;19.90;97.00;;;;;;5103226;28;20436;-10
2022/09/12 04:42:41;;;;;;;;;;;19.90;97.00;;;;;;5085767;28;19974;-10
2022/09/12 04:45:07;;;;;;;;;;;19.90;97.00;;;;;;5085389;28;19908;-8
2022/09/12 04:47:33;;;;;;;;;;;19.90;97.00;;;;;;5085999;28;19908;-8
2022/09/12 04:49:58;;;;;;;;;;;19.90;97.00;;;;;;5102459;28;20014;-10
2022/09/12 04:52:24;;;;;;;;;;;19.90;97.00;;;;;;5103564;28;19940;-10
2022/09/12 04:54:51;;;;;;;;;;;19.90;97.00;;;;;;5102986;28;20322;-10
2022/09/12 04:57:16;;;;;;;;;;;19.80;96.90;;;;;;5085022;28;19918;-10
2022/09/12 04:59:42;;;;;;;;;;;19.90;96.90;;;;;;5085417;28;20025;-10
2022/09/12 05:02:07;;;;;;;;;;;19.90;96.90;;;;;;5102894;28;19929;-10
2022/09/12 05:04:33;;;;;;;;;;;19.90;96.90;;;;;;5084978;28;19919;-9
2022/09/12 05:06:59;;;;;;;;;;;19.90;96.90;;;;;;5080414;28;19919;-11
2022/09/12 05:09:25;;;;;;;;;;;19.90;96.80;;;;;;5081242;28;19962;-10
2022/09/12 05:11:51;;;;;;;;;;;19.90;96.80;;;;;;5081359;28;19919;-12
2022/09/12 05:14:16;;;;;;;;;;;19.90;96.70;;;;;;5080470;28;20209;-9
2022/09/12 05:16:42;;;;;;;;;;;19.90;96.70;;;;;;5098983;28;19920;-10
2022/09/12 05:19:09;;;;;;;;;;;19.90;96.70;;;;;;5081038;28;19935;-10
2022/09/12 05:21:35;;;;;;;;;;;19.90;96.60;;;;;;5097782;28;20423;-10
2022/09/12 05:24:04;;;;;;;;;;;19.90;96.60;;;;;;5098827;28;19998;-10
2022/09/12 05:26:29;;;;;;;;;;;19.90;96.50;;;;;;5098354;28;19912;-10
2022/09/12 05:28:55;;;;;;;;;;;19.90;96.50;;;;;;5098487;28;19977;-11
2022/09/12 05:31:27;;;;;;;;;;;19.90;96.40;;;;;;5079629;28;19955;-9
2022/09/12 05:33:53;;;;;;;;;;;19.90;96.40;;;;;;5097225;28;19908;-10
2022/09/12 05:36:24;;;;;;;;;;;19.90;96.30;;;;;;5097497;28;19912;-10
2022/09/12 05:38:49;;;;;;;;;;;20.00;96.30;;;;;;5097188;28;19920;-10
2022/09/12 05:41:17;;;;;;;;;;;20.00;96.20;;;;;;5078553;28;20174;-11
2022/09/12 05:43:43;;;;;;;;;;;20.00;96.10;;;;;;5096107;28;19965;-10
2022/09/12 05:46:09;;;;;;;;;;;20.00;96.10;;;;;;5078755;28;19991;-9
2022/09/12 05:48:35;;;;;;;;;;;20.10;96.00;;;;;;5077719;28;20006;-10
2022/09/12 05:51:06;;;;;;;;;;;20.10;95.80;;;;;;5095123;28;20286;-10
2022/09/12 05:53:32;;;;;;;;;;;20.30;95.60;;;;;;5076824;28;19908;-9
2022/09/12 05:56:01;;;;;;;;;;;20.40;95.40;;;;;;5095189;28;20186;-11
2022/09/12 05:58:27;;;;;;;;;;;20.50;95.20;;;;;;5078220;28;20155;-11
2022/09/12 06:00:53;;;;;;;;;;;20.60;95.00;;;;;;5078641;28;19919;-10
2022/09/12 06:03:18;;;;;;;;;;;20.90;94.50;;;;;;5079944;28;20026;-10
2022/09/12 06:05:44;;;;;;;;;;;21.10;94.10;;;;;;5095038;28;20064;-10
2022/09/12 06:08:10;;;;;;;;;;;21.30;93.40;;;;;;5078756;28;19915;-11
2022/09/12 06:10:37;;;;;;;;;;;21.70;92.50;;;;;;5096111;28;19908;-10
2022/09/12 06:13:03;;;;;;;;;;;22.10;91.20;;;;;;5079563;28;19918;-10
2022/09/12 06:15:28;;;;;;;;;;;22.60;88.90;;;;;;5097123;28;19908;-9
2022/09/12 06:17:54;;;;;;;;;;;23.10;84.80;;;;;;5077655;28;19919;-9
2022/09/12 06:20:25;;;;;;;;;;;23.40;81.20;;;;;;5079453;28;20163;-10
2022/09/12 06:22:54;;;;;;;;;;;23.40;79.40;;;;;;5096406;28;19922;-10
2022/09/12 06:25:21;;;;;;;;;;;23.20;80.00;;;;;;5079533;28;19911;-9
2022/09/12 06:27:46;;;;;;;;;;;23.30;80.40;;;;;;5078514;28;20015;-10
2022/09/12 06:30:12;;;;;;;;;;;23.50;78.60;;;;;;5078217;28;20022;-11
2022/09/12 06:32:38;;;;;;;;;;;23.80;76.30;;;;;;5097113;28;19943;-10
2022/09/12 06:35:04;;;;;;;;;;;24.10;74.20;;;;;;5096613;28;19908;-10
2022/09/12 06:37:31;;;;;;;;;;;24.30;72.80;;;;;;5079085;28;19908;-11
2022/09/12 06:39:57;;;;;;;;;;;24.50;70.80;;;;;;5097363;28;19999;-10
2022/09/12 06:42:22;;;;;;;;;;;25.00;68.30;;;;;;5079202;28;20011;-11
2022/09/12 06:44:49;;;;;;;;;;;25.10;65.80;;;;;;5096291;28;19942;-10
2022/09/12 06:47:14;;;;;;;;;;;24.70;67.00;;;;;;5079822;28;19939;-10
2022/09/12 06:49:40;;;;;;;;;;;24.30;68.80;;;;;;5079271;28;20296;-10
2022/09/12 06:52:06;;;;;;;;;;;24.10;70.80;;;;;;5096503;28;20209;-11
2022/09/12 06:54:32;;;;;;;;;;;24.00;71.70;;;;;;5078619;28;20285;-10
2022/09/12 06:56:57;;;;;;;;;;;23.90;72.20;;;;;;5096217;28;20343;-11
2022/09/12 06:59:23;;;;;;;;;;;23.90;73.60;;;;;;5096174;28;19908;-10
2022/09/12 07:01:49;;;;;;;;;;;23.80;73.20;;;;;;5094936;28;19912;-10
2022/09/12 07:04:18;;;;;;;;;;;23.90;73.00;;;;;;5078795;28;19993;-9
2022/09/12 07:06:44;;;;;;;;;;;24.10;72.10;;;;;;5078602;28;19984;-10
2022/09/12 07:09:11;;;;;;;;;;;24.20;71.80;;;;;;5079168;28;20489;-9
2022/09/12 07:11:37;;;;;;;;;;;24.40;70.50;;;;;;5095832;28;19916;-11
2022/09/12 07:14:05;;;;;;;;;;;24.60;69.20;;;;;;5096256;28;19915;-10
2022/09/12 07:16:30;;;;;;;;;;;24.50;68.90;;;;;;5095655;28;19998;-10
2022/09/12 07:18:57;;;;;;;;;;;24.40;69.10;;;;;;5078334;28;20002;-11
2022/09/12 07:21:23;;;;;;;;;;;24.30;69.70;;;;;;5096071;28;19908;-10
2022/09/12 07:23:54;;;;;;;;;;;24.20;70.30;;;;;;5077303;28;19931;-9
2022/09/12 07:26:19;;;;;;;;;;;24.10;71.00;;;;;;5095302;28;20011;-11
2022/09/12 07:28:49;;;;;;;;;;;24.00;71.40;;;;;;5078252;28;20014;-10
2022/09/12 07:31:16;;;;;;;;;;;23.80;72.40;;;;;;5095626;28;19916;-10
2022/09/12 07:33:42;;;;;;;;;;;23.70;73.30;;;;;;5077377;28;19991;-10
2022/09/12 07:36:10;;;;;;;;;;;23.50;74.10;;;;;;5077391;28;19927;-10
2022/09/12 07:38:40;;;;;;;;;;;23.40;75.10;;;;;;5078020;28;19908;-9
2022/09/12 07:41:18;;;;;;;;;;;23.30;75.70;;;;;;5077957;28;20446;-10
2022/09/12 07:43:46;;;;;;;;;;;23.20;77.10;;;;;;5095390;28;19955;-13
2022/09/12 07:46:11;;;;;;;;;;;23.00;77.50;;;;;;5094401;28;19923;-10
2022/09/12 07:48:38;;;;;;;;;;;22.90;78.50;;;;;;5077912;28;19908;-10
2022/09/12 07:51:04;;;;;;;;;;;22.80;79.40;;;;;;5078163;28;19908;-9
2022/09/12 07:53:31;;;;;;;;;;;22.80;80.00;;;;;;5094887;28;20407;-9
2022/09/12 07:55:57;;;;;;;;;;;22.70;81.00;;;;;;5094325;28;20209;-10
2022/09/12 07:58:23;;;;;;;;;;;22.70;81.20;;;;;;5060903;28;20376;-11
2022/09/12 08:00:50;;;;;;;;;;;22.70;81.50;;;;;;5095623;28;19997;-10
2022/09/12 08:03:16;;;;;;;;;;;22.60;82.10;;;;;;5077523;28;19977;-9
2022/09/12 08:05:42;;;;;;;;;;;22.60;82.80;;;;;;5076414;28;19908;-11
2022/09/12 08:08:07;;;;;;;;;;;22.50;83.20;;;;;;5095097;28;19908;-10
2022/09/12 08:10:33;;;;;;;;;;;22.40;83.90;;;;;;5095065;28;19915;-10
2022/09/12 08:12:59;;;;;;;;;;;22.40;84.50;;;;;;5079031;28;20212;-10
2022/09/12 08:15:24;;;;;;;;;;;22.40;84.80;;;;;;5076749;28;19919;-10
2022/09/12 08:17:50;;;;;;;;;;;22.40;84.80;;;;;;5093173;28;19969;-13
2022/09/12 08:20:28;;;;;;;;;;;22.60;84.70;;;;;;5076331;28;19908;-10
2022/09/12 08:22:54;;;;;;;;;;;22.80;82.70;;;;;;5093595;28;19947;-10
2022/09/12 08:25:19;;;;;;;;;;;23.00;80.90;;;;;;5094616;28;19919;-12
2022/09/12 08:27:45;;;;;;;;;;;23.20;80.60;;;;;;5076022;28;20332;-9
2022/09/12 08:30:11;;;;;;;;;;;23.30;78.60;;;;;;5094202;28;20349;-11
2022/09/12 08:32:37;;;;;;;;;;;23.50;77.50;;;;;;5076965;28;19908;-9
2022/09/12 08:35:03;;;;;;;;;;;23.60;76.50;;;;;;5095505;28;20060;-10
2022/09/12 08:37:29;;;;;;;;;;;23.70;75.80;;;;;;5094300;28;19912;-11
2022/09/12 08:39:55;;;;;;;;;;;23.80;75.20;;;;;;5076184;28;19909;-10
2022/09/12 08:42:57;;;;;;;;;;;23.80;74.60;;;;;;5096208;28;19961;-10
2022/09/12 08:45:33;;;;;;;;;;;23.90;74.40;;;;;;4995489;28;19910;-10
2022/09/12 08:48:01;;;;;;;;;;;24.10;72.80;;;;;;5083246;28;19908;-9
2022/09/12 08:50:31;;;;;;;;;;;24.30;71.30;;;;;;5080696;28;19957;-11
2022/09/12 08:53:09;;;;;;;;;;;24.40;71.20;;;;;;5079975;28;20308;-10
2022/09/12 08:55:37;;;;;;;;;;;24.70;69.70;;;;;;5080537;28;19964;-10
2022/09/12 08:58:15;;;;;;;;;;;24.90;68.20;;;;;;5080338;28;19916;-11
2022/09/12 09:00:47;;;;;;;;;;;25.20;66.40;;;;;;5080149;28;20010;-10
2022/09/12 09:03:45;;;;;;;;;;;25.40;65.00;;;;;;5096419;28;20018;-11
2022/09/12 09:06:11;;;;;;;;;;;25.40;64.90;;;;;;5041289;28;20481;-11
2022/09/12 09:08:39;;;;;;;;;;;25.40;65.10;;;;;;5097829;28;19908;-10
2022/09/12 09:11:07;;;;;;;;;;;25.50;64.30;;;;;;5097400;28;20235;-10
2022/09/12 09:16:38;;;;;;;;;;;25.20;65.50;;;;;;5051611;28;19908;-11
2022/09/12 09:19:24;;;;;;;;;;;26.10;63.20;;;;;;5079856;28;20298;-11
2022/09/12 09:21:53;;;;;;;;;;;26.50;61.40;;;;;;5095224;28;19918;-11
2022/09/12 09:24:23;;;;;;;;;;;26.50;59.80;;;;;;5077909;28;19912;-12
2022/09/12 09:26:56;;;;;;;;;;;26.00;60.90;;;;;;5077923;28;20003;-10
2022/09/12 09:29:24;;;;;;;;;;;25.70;62.10;;;;;;5094665;28;20459;-10
2022/09/12 09:31:54;;;;;;;;;;;25.60;62.90;;;;;;5077813;28;19977;-10
2022/09/12 09:34:21;;;;;;;;;;;25.70;63.00;;;;;;5078390;28;19912;-10
2022/09/12 09:37:02;;;;;;;;;;;25.90;63.10;;;;;;5096061;28;19908;-11
2022/09/12 09:39:30;;;;;;;;;;;26.10;61.80;;;;;;5079678;28;20433;-11
2022/09/12 09:42:15;;;;;;;;;;;25.90;61.80;;;;;;5096799;28;19919;-10
2022/09/12 09:44:47;;;;;;;;;;;26.40;61.80;;;;;;5097467;28;20061;-11
2022/09/12 09:47:14;;;;;;;;;;;27.40;58.80;;;;;;5078474;28;19908;-10
2022/09/12 09:49:39;;;;;;;;;;;27.40;58.20;;;;;;5079390;28;20405;-11
2022/09/12 09:52:07;;;;;;;;;;;27.30;58.20;;;;;;5096659;28;19919;-10
2022/09/12 09:54:37;;;;;;;;;;;28.30;57.30;;;;;;5078827;28;19919;-11
2022/09/12 09:57:04;;;;;;;;;;;28.90;55.90;;;;;;5078277;28;20178;-11
2022/09/12 09:59:32;;;;;;;;;;;29.10;54.90;;;;;;5096157;28;19919;-10
2022/09/12 10:02:02;;;;;;;;;;;28.80;54.40;;;;;;5078830;28;19912;-11
2022/09/12 10:04:33;;;;;;;;;;;28.40;54.70;;;;;;5096988;28;20198;-10
2022/09/12 10:07:00;;;;;;;;;;;27.90;55.20;;;;;;5095960;28;20421;-11
2022/09/12 10:09:27;;;;;;;;;;;27.40;56.00;;;;;;5092246;28;19974;-11
2022/09/12 10:11:54;;;;;;;;;;;26.90;57.10;;;;;;5087917;28;20223;-11
2022/09/12 10:14:36;;;;;;;;;;;26.50;58.00;;;;;;5089929;28;19979;-11
2022/09/12 10:17:22;;;;;;;;;;;26.30;58.90;;;;;;5088995;28;19910;-10
2022/09/12 10:19:47;;;;;;;;;;;26.10;59.60;;;;;;5069558;28;20159;-10
2022/09/12 10:22:17;;;;;;;;;;;25.90;60.50;;;;;;5088508;28;20078;-11
2022/09/12 10:24:47;;;;;;;;;;;25.70;61.20;;;;;;5089089;28;20288;-11
2022/09/12 10:27:15;;;;;;;;;;;25.60;62.90;;;;;;5072418;28;20138;-11
2022/09/12 10:29:49;;;;;;;;;;;25.50;63.90;;;;;;5089492;28;20190;-10
2022/09/12 10:32:35;;;;;;;;;;;25.40;64.00;;;;;;5089228;28;19919;-10
2022/09/12 10:35:03;;;;;;;;;;;25.40;64.80;;;;;;5089025;28;19916;-11
2022/09/12 10:37:33;;;;;;;;;;;25.30;65.50;;;;;;5089983;28;20007;-10
2022/09/12 10:39:59;;;;;;;;;;;25.20;65.90;;;;;;5071779;28;19908;-10
2022/09/12 10:42:41;;;;;;;;;;;25.20;66.80;;;;;;5089021;28;19912;-10
2022/09/12 10:45:17;;;;;;;;;;;25.10;67.50;;;;;;5091229;28;20312;-10
2022/09/12 10:47:42;;;;;;;;;;;25.10;67.90;;;;;;5096103;28;19915;-10
2022/09/12 10:50:20;;;;;;;;;;;25.00;68.50;;;;;;5096427;28;19908;-10
2022/09/12 10:52:52;;;;;;;;;;;24.90;70.00;;;;;;5096210;28;19919;-11
2022/09/12 10:55:22;;;;;;;;;;;24.90;70.20;;;;;;5095968;28;19913;-11
2022/09/12 10:58:07;;;;;;;;;;;24.90;71.60;;;;;;5093812;28;19941;-9
2022/09/12 11:00:38;;;;;;;;;;;24.80;72.00;;;;;;5076757;28;20189;-11
2022/09/12 11:03:08;;;;;;;;;;;24.80;72.50;;;;;;5093431;28;19916;-12
2022/09/12 11:05:43;;;;;;;;;;;24.80;72.90;;;;;;5093082;28;20413;-10
2022/09/12 11:08:28;;;;;;;;;;;24.70;73.40;;;;;;5093086;28;20255;-12
2022/09/12 11:10:56;;;;;;;;;;;24.70;73.20;;;;;;5076335;28;19916;-11
2022/09/12 11:13:22;;;;;;;;;;;24.70;73.70;;;;;;5094737;28;19908;-10
2022/09/12 11:15:57;;;;;;;;;;;24.70;73.70;;;;;;5077180;28;19909;-10
2022/09/12 11:19:02;;;;;;;;;;;24.70;74.00;;;;;;5095070;28;19908;-10
2022/09/12 11:21:38;;;;;;;;;;;24.60;74.00;;;;;;4993324;28;19921;-11
2022/09/12 11:24:04;;;;;;;;;;;24.60;74.80;;;;;;4992158;28;19914;-11
2022/09/12 11:26:46;;;;;;;;;;;24.60;74.70;;;;;;5049103;28;19909;-12
2022/09/12 11:29:25;;;;;;;;;;;24.50;75.50;;;;;;5093665;28;20216;-10
2022/09/12 11:31:53;;;;;;;;;;;24.50;75.60;;;;;;5094415;28;19959;-11
2022/09/12 11:34:45;;;;;;;;;;;24.50;76.10;;;;;;5094687;28;19962;-10
2022/09/12 11:37:27;;;;;;;;;;;24.50;75.80;;;;;;5036084;28;19908;-11
2022/09/12 11:39:55;;;;;;;;;;;24.50;76.50;;;;;;5075521;28;20336;-10
2022/09/12 11:42:22;;;;;;;;;;;24.50;77.60;;;;;;5092114;28;19919;-11
2022/09/12 11:45:23;;;;;;;;;;;24.50;77.20;;;;;;5092979;28;20387;-10
2022/09/12 11:47:52;;;;;;;;;;;24.50;77.70;;;;;;4990823;28;20494;-9
2022/09/12 11:50:22;;;;;;;;;;;24.40;77.90;;;;;;5074155;28;19916;-11
2022/09/12 11:52:49;;;;;;;;;;;24.40;78.20;;;;;;5084371;28;20487;-11
2022/09/12 11:55:21;;;;;;;;;;;24.40;78.90;;;;;;5074067;28;19908;-11
2022/09/12 11:57:55;;;;;;;;;;;24.40;78.80;;;;;;5057301;28;19915;-11
2022/09/12 12:00:21;;;;;;;;;;;24.40;79.40;;;;;;5057398;28;19935;-10
2022/09/12 12:02:47;;;;;;;;;;;24.40;79.50;;;;;;5074288;28;20275;-10
2022/09/12 12:05:21;;;;;;;;;;;24.40;79.80;;;;;;5056773;28;19919;-10
2022/09/12 12:07:53;;;;;;;;;;;24.40;79.50;;;;;;5057136;28;19908;-11
2022/09/12 12:10:25;;;;;;;;;;;24.40;79.70;;;;;;5074694;28;20344;-10
2022/09/12 12:12:52;;;;;;;;;;;24.40;80.40;;;;;;5056525;28;19912;-11
2022/09/12 12:15:18;;;;;;;;;;;24.40;80.50;;;;;;5075694;28;19909;-9
2022/09/12 12:17:44;;;;;;;;;;;24.40;80.70;;;;;;5076121;28;19908;-10
2022/09/12 12:20:16;;;;;;;;;;;24.40;80.50;;;;;;5077309;28;19920;-10
2022/09/12 12:22:52;;;;;;;;;;;24.40;80.70;;;;;;5075999;28;19920;-11
2022/09/12 12:25:17;;;;;;;;;;;24.40;81.10;;;;;;5077372;28;19916;-11
2022/09/12 12:27:46;;;;;;;;;;;24.40;81.20;;;;;;5077516;28;19909;-10
2022/09/12 12:30:40;;;;;;;;;;;24.30;81.80;;;;;;5077202;28;20443;-10
2022/09/12 12:33:25;;;;;;;;;;;24.30;81.70;;;;;;5077168;28;19962;-11
2022/09/12 12:36:00;;;;;;;;;;;24.30;82.40;;;;;;5077381;28;19919;-10
2022/09/12 12:38:28;;;;;;;;;;;24.30;82.80;;;;;;5059884;28;19934;-11
2022/09/12 12:41:13;;;;;;;;;;;24.30;82.60;;;;;;5076060;28;19962;-11
2022/09/12 12:43:39;;;;;;;;;;;24.30;82.80;;;;;;5059853;28;20387;-10
2022/09/12 12:46:05;;;;;;;;;;;24.30;83.70;;;;;;5060201;28;20515;-10
2022/09/12 12:48:34;;;;;;;;;;;24.30;84.30;;;;;;5059380;28;19931;-10
2022/09/12 12:51:26;;;;;;;;;;;24.30;84.30;;;;;;5059603;28;19917;-10
2022/09/12 12:53:52;;;;;;;;;;;24.30;85.00;;;;;;5058134;28;19969;-10
2022/09/12 12:56:34;;;;;;;;;;;24.30;85.60;;;;;;5095160;28;19916;-11
2022/09/12 12:59:10;;;;;;;;;;;24.30;85.30;;;;;;5059636;28;19920;-11
2022/09/12 13:01:39;;;;;;;;;;;24.30;86.10;;;;;;5076469;28;20368;-10
2022/09/12 13:04:14;;;;;;;;;;;24.30;86.00;;;;;;5076369;28;19913;-10
2022/09/12 13:06:41;;;;;;;;;;;24.30;86.40;;;;;;5077021;28;19908;-11
2022/09/12 13:09:17;;;;;;;;;;;24.30;86.00;;;;;;5076710;28;19974;-11
2022/09/12 13:11:43;;;;;;;;;;;24.20;85.90;;;;;;5076070;28;19909;-10
2022/09/12 13:14:46;;;;;;;;;;;24.20;85.90;;;;;;5060625;28;19918;-10
2022/09/12 13:17:14;;;;;;;;;;;24.20;86.00;;;;;;4979305;28;19953;-10
2022/09/12 13:19:40;;;;;;;;;;;24.20;86.10;;;;;;5062321;28;19912;-11
2022/09/12 13:22:08;;;;;;;;;;;24.20;86.20;;;;;;5059153;28;19924;-10
2022/09/12 13:24:41;;;;;;;;;;;24.20;86.40;;;;;;5076737;28;19919;-10
2022/09/12 13:27:17;;;;;;;;;;;24.20;86.40;;;;;;5078033;28;20218;-11
2022/09/12 13:29:45;;;;;;;;;;;24.20;87.00;;;;;;5088922;28;20417;-11
2022/09/12 13:32:10;;;;;;;;;;;24.20;86.60;;;;;;5069674;28;19920;-11
2022/09/12 13:34:44;;;;;;;;;;;24.20;86.70;;;;;;5068844;28;20361;-11
2022/09/12 13:37:25;;;;;;;;;;;24.20;88.90;;;;;;5096346;28;19908;-9
2022/09/12 13:39:54;;;;;;;;;;;24.20;89.50;;;;;;5095809;28;19931;-11
2022/09/12 13:42:25;;;;;;;;;;;24.20;90.00;;;;;;5095832;28;20201;-11
2022/09/12 13:44:54;;;;;;;;;;;24.20;89.80;;;;;;5096286;28;19912;-11
2022/09/12 13:47:28;;;;;;;;;;;24.20;90.00;;;;;;5095986;28;19908;-13
2022/09/12 13:49:54;;;;;;;;;;;24.30;90.10;;;;;;5079138;28;19947;-10
2022/09/12 13:52:23;;;;;;;;;;;24.30;90.30;;;;;;5078649;28;19916;-11
2022/09/12 13:54:50;;;;;;;;;;;24.30;89.90;;;;;;5095834;28;19912;-9
2022/09/12 13:57:30;;;;;;;;;;;24.30;89.60;;;;;;5078253;28;19922;-10
2022/09/12 13:59:56;;;;;;;;;;;24.30;89.70;;;;;;5079988;28;20372;-10
2022/09/12 14:02:23;;;;;;;;;;;24.30;89.70;;;;;;5096208;28;20231;-11
2022/09/12 14:05:09;;;;;;;;;;;24.30;90.00;;;;;;5096152;28;20523;-11
2022/09/12 14:07:44;;;;;;;;;;;24.30;89.90;;;;;;5078118;28;19918;-10
2022/09/12 14:10:15;;;;;;;;;;;24.30;90.20;;;;;;5077891;28;20301;-9
2022/09/12 14:12:42;;;;;;;;;;;24.30;89.70;;;;;;5077785;28;19908;-11
2022/09/12 14:15:26;;;;;;;;;;;24.30;89.60;;;;;;5078652;28;19908;-11
2022/09/12 14:18:00;;;;;;;;;;;24.30;89.60;;;;;;5078068;28;19912;-10
2022/09/12 14:20:30;;;;;;;;;;;24.40;89.70;;;;;;5095773;28;19908;-10
2022/09/12 14:22:58;;;;;;;;;;;24.40;90.00;;;;;;5078486;28;19919;-10
2022/09/12 14:25:24;;;;;;;;;;;24.40;89.90;;;;;;5095233;28;20170;-12
2022/09/12 14:27:54;;;;;;;;;;;24.40;89.90;;;;;;5078943;28;19927;-11
2022/09/12 14:30:29;;;;;;;;;;;24.40;90.00;;;;;;5079585;28;20054;-10
2022/09/12 14:33:06;;;;;;;;;;;24.40;89.70;;;;;;5096300;28;19923;-11
2022/09/12 14:35:32;;;;;;;;;;;24.40;88.60;;;;;;5078924;28;20356;-11
2022/09/12 14:38:05;;;;;;;;;;;24.40;88.60;;;;;;5094470;28;20382;-11